Time;durP1;ratioP1;P1;durP2;ratioP2;P2;SDS_P1;SDS_P2;PMS_P1;PMS_P2;Temp;Humidity;BMP_temperature;BMP_pressure;BME280_temperature;BME280_humidity;BME280_pressure;Samples;Min_cycle;Max_cycle;Signal;HPM_P1;HPM_P2
2023/08/24 00:00:01;;;;;;;18.77;10.85;;;21.90;99.80;;;;;;5085201;28;20052;-46
2023/08/24 00:02:47;;;;;;;10.80;7.32;;;21.80;99.90;;;;;;5082831;28;20028;-46
2023/08/24 00:05:35;;;;;;;17.60;15.25;;;21.80;99.90;;;;;;5084456;28;20112;-46
2023/08/24 00:08:21;;;;;;;13.65;11.32;;;21.80;99.90;;;;;;5071028;28;20493;-46
2023/08/24 00:11:07;;;;;;;9.07;6.50;;;21.80;99.90;;;;;;5085574;28;20028;-45
2023/08/24 00:13:53;;;;;;;9.05;6.30;;;21.80;99.90;;;;;;5066971;28;20064;-43
2023/08/24 00:16:40;;;;;;;7.50;6.25;;;21.80;99.90;;;;;;5085532;28;20039;-45
2023/08/24 00:19:26;;;;;;;8.98;5.82;;;21.80;99.90;;;;;;5080565;28;20432;-47
2023/08/24 00:22:12;;;;;;;6.40;5.75;;;21.80;99.90;;;;;;5084188;28;20450;-51
2023/08/24 00:24:58;;;;;;;11.45;6.30;;;21.80;99.90;;;;;;5088101;28;20492;-51
2023/08/24 00:27:44;;;;;;;9.05;6.25;;;21.70;99.60;;;;;;5089044;28;20404;-52
2023/08/24 00:30:30;;;;;;;8.52;5.78;;;21.70;99.50;;;;;;5089749;28;20050;-53
2023/08/24 00:33:16;;;;;;;6.65;5.95;;;21.60;99.40;;;;;;5088015;28;20020;-45
2023/08/24 00:36:02;;;;;;;10.27;6.70;;;21.60;99.70;;;;;;5085979;28;20038;-45
2023/08/24 00:38:51;;;;;;;8.93;6.82;;;21.50;99.90;;;;;;5088284;28;20408;-52
2023/08/24 00:41:37;;;;;;;8.35;5.97;;;21.40;99.70;;;;;;5094343;28;20035;-48
2023/08/24 00:44:23;;;;;;;9.38;6.97;;;21.40;99.80;;;;;;5089066;28;20500;-50
2023/08/24 00:47:09;;;;;;;8.77;7.15;;;21.40;99.80;;;;;;5093883;28;20032;-52
2023/08/24 00:49:56;;;;;;;13.93;7.70;;;21.30;99.90;;;;;;5093183;28;20465;-49
2023/08/24 00:52:42;;;;;;;8.43;7.07;;;21.30;99.90;;;;;;5094072;28;20047;-45
2023/08/24 00:55:28;;;;;;;8.52;6.78;;;21.30;99.90;;;;;;5093923;28;20043;-46
2023/08/24 00:58:14;;;;;;;8.85;6.93;;;21.30;99.90;;;;;;5082849;28;20040;-47
2023/08/24 01:01:00;;;;;;;8.15;6.38;;;21.20;99.90;;;;;;5090808;28;20107;-48
2023/08/24 01:03:46;;;;;;;8.40;5.80;;;21.20;99.90;;;;;;5085419;28;20055;-50
2023/08/24 01:06:32;;;;;;;10.65;6.13;;;21.20;99.90;;;;;;5084649;28;20089;-47
2023/08/24 01:09:20;;;;;;;6.88;6.28;;;21.20;99.90;;;;;;5078580;28;20032;-48
2023/08/24 01:12:35;;;;;;;9.45;6.65;;;21.20;99.90;;;;;;5082642;28;20043;-47
2023/08/24 01:15:37;;;;;;;6.80;6.10;;;21.20;99.90;;;;;;5086288;28;20039;-49
2023/08/24 01:18:26;;;;;;;8.55;5.88;;;21.20;99.90;;;;;;5084687;28;20017;-49
2023/08/24 01:21:14;;;;;;;9.55;6.40;;;21.10;99.90;;;;;;5079331;28;20021;-47
2023/08/24 01:24:14;;;;;;;8.45;6.32;;;21.20;99.90;;;;;;5085618;28;20090;-51
2023/08/24 01:27:01;;;;;;;7.45;6.35;;;21.10;99.90;;;;;;5081870;28;20024;-53
2023/08/24 01:29:47;;;;;;;9.02;6.50;;;21.00;99.90;;;;;;5083742;28;20029;-50
2023/08/24 01:32:35;;;;;;;7.05;5.93;;;21.00;99.90;;;;;;5079496;28;20393;-47
2023/08/24 01:35:21;;;;;;;6.93;6.18;;;21.00;99.90;;;;;;5080531;28;20558;-48
2023/08/24 01:38:07;;;;;;;8.23;6.20;;;20.90;99.90;;;;;;5073218;28;20032;-49
2023/08/24 01:41:01;;;;;;;8.13;6.28;;;20.80;99.90;;;;;;5084049;28;20066;-53
2023/08/24 01:43:55;;;;;;;6.95;6.35;;;20.90;99.90;;;;;;5083169;28;20107;-54
2023/08/24 01:46:43;;;;;;;8.00;6.00;;;20.90;99.90;;;;;;5091865;28;20038;-47
2023/08/24 01:49:30;;;;;;;9.50;6.20;;;20.90;99.90;;;;;;5089256;28;20709;-47
2023/08/24 01:52:17;;;;;;;10.48;7.05;;;20.90;99.90;;;;;;5091749;28;20024;-46
2023/08/24 01:55:03;;;;;;;13.98;10.57;;;20.80;99.90;;;;;;5086415;28;20514;-52
2023/08/24 01:57:49;;;;;;;9.88;8.73;;;20.80;99.90;;;;;;5085145;28;20080;-49
2023/08/24 02:00:35;;;;;;;10.77;7.55;;;20.70;99.90;;;;;;5075017;28;20088;-48
2023/08/24 02:03:21;;;;;;;8.20;6.22;;;20.70;99.90;;;;;;5076072;28;20028;-49
2023/08/24 02:06:07;;;;;;;9.18;6.40;;;20.80;99.90;;;;;;5091709;28;20181;-44
2023/08/24 02:08:53;;;;;;;7.80;6.47;;;20.80;99.90;;;;;;5092136;28;20020;-48
2023/08/24 02:11:39;;;;;;;8.48;6.22;;;20.80;99.90;;;;;;5093902;28;20021;-50
2023/08/24 02:14:25;;;;;;;12.48;6.97;;;20.80;99.90;;;;;;5076155;28;20040;-51
2023/08/24 02:17:11;;;;;;;7.05;5.43;;;20.80;99.90;;;;;;5083177;28;20020;-48
2023/08/24 02:19:57;;;;;;;7.53;6.20;;;20.80;99.90;;;;;;5083806;28;20108;-51
2023/08/24 02:22:43;;;;;;;6.25;5.65;;;20.80;99.90;;;;;;5066026;28;20393;-45
2023/08/24 02:25:29;;;;;;;8.88;6.10;;;20.70;99.90;;;;;;5086644;28;20105;-44
2023/08/24 02:28:15;;;;;;;6.70;5.90;;;20.70;99.90;;;;;;5090956;28;20054;-44
2023/08/24 02:31:03;;;;;;;8.60;6.68;;;20.70;99.90;;;;;;5077620;28;20107;-45
2023/08/24 02:33:49;;;;;;;8.10;6.10;;;20.70;99.90;;;;;;5089065;28;20028;-44
2023/08/24 02:36:36;;;;;;;9.02;6.90;;;20.60;99.90;;;;;;5060285;28;20072;-50
2023/08/24 02:39:22;;;;;;;8.00;7.00;;;20.50;99.90;;;;;;5060230;28;20039;-44
2023/08/24 02:42:08;;;;;;;9.73;6.57;;;20.40;99.90;;;;;;5062457;28;20032;-48
2023/08/24 02:44:54;;;;;;;7.35;6.65;;;20.40;99.90;;;;;;5060890;28;20087;-44
2023/08/24 02:47:39;;;;;;;11.02;6.65;;;20.40;99.90;;;;;;5061027;28;20029;-44
2023/08/24 02:50:26;;;;;;;8.00;6.70;;;20.30;99.90;;;;;;5060043;28;20017;-43
2023/08/24 02:53:11;;;;;;;10.20;6.43;;;20.30;99.90;;;;;;5079735;28;20016;-46
2023/08/24 02:55:58;;;;;;;9.43;6.22;;;20.20;99.90;;;;;;5082018;28;20063;-48
2023/08/24 02:58:44;;;;;;;6.28;5.63;;;20.20;99.90;;;;;;5086883;28;20024;-46
2023/08/24 03:01:30;;;;;;;9.70;6.38;;;20.20;99.90;;;;;;5076068;28;20032;-48
2023/08/24 03:04:16;;;;;;;7.85;6.60;;;20.30;99.90;;;;;;5064382;28;20442;-51
2023/08/24 03:07:02;;;;;;;8.77;7.05;;;20.30;99.90;;;;;;5091966;28;20024;-48
2023/08/24 03:09:48;;;;;;;8.13;7.32;;;20.20;99.90;;;;;;5092480;28;20118;-51
2023/08/24 03:12:34;;;;;;;9.48;7.65;;;20.20;99.90;;;;;;5090853;28;20028;-49
2023/08/24 03:15:21;;;;;;;7.60;6.72;;;20.10;99.90;;;;;;5076712;28;20512;-48
2023/08/24 03:18:07;;;;;;;7.32;6.45;;;20.00;99.90;;;;;;5091431;28;20028;-49
2023/08/24 03:20:53;;;;;;;7.82;6.28;;;20.00;99.90;;;;;;5091857;28;20050;-47
2023/08/24 03:23:39;;;;;;;10.48;6.43;;;20.00;99.90;;;;;;5091595;28;20070;-50
2023/08/24 03:26:24;;;;;;;8.23;6.00;;;20.10;99.90;;;;;;5091303;28;20484;-49
2023/08/24 03:29:10;;;;;;;8.40;6.43;;;20.10;99.90;;;;;;5091580;28;20115;-50
2023/08/24 03:31:56;;;;;;;10.75;8.73;;;20.10;99.90;;;;;;5091655;28;20039;-46
2023/08/24 03:34:42;;;;;;;10.02;7.78;;;20.10;99.90;;;;;;5091720;28;20024;-50
2023/08/24 03:37:28;;;;;;;10.98;7.13;;;20.10;99.90;;;;;;5091425;28;20031;-46
2023/08/24 03:40:14;;;;;;;8.68;7.20;;;19.90;99.90;;;;;;5091352;28;20381;-47
2023/08/24 03:43:02;;;;;;;8.50;7.55;;;20.00;99.90;;;;;;5090662;28;20031;-56
2023/08/24 03:45:48;;;;;;;11.57;6.78;;;20.00;99.90;;;;;;5090790;28;20112;-51
2023/08/24 03:48:34;;;;;;;9.40;6.70;;;20.00;99.90;;;;;;5091354;28;20024;-52
2023/08/24 03:51:20;;;;;;;7.28;6.30;;;20.00;99.90;;;;;;5091501;28;20032;-49
2023/08/24 03:54:06;;;;;;;7.22;6.53;;;20.00;99.90;;;;;;5091369;28;20499;-49
2023/08/24 03:56:52;;;;;;;7.63;6.72;;;20.00;99.90;;;;;;5091255;28;20052;-46
2023/08/24 03:59:38;;;;;;;9.38;6.40;;;20.00;99.90;;;;;;5090450;28;20400;-47
2023/08/24 04:02:23;;;;;;;8.55;7.18;;;20.00;99.90;;;;;;5091480;28;20107;-46
2023/08/24 04:05:09;;;;;;;8.63;7.10;;;20.00;99.90;;;;;;5076666;28;20039;-51
2023/08/24 04:07:55;;;;;;;8.93;7.53;;;20.00;99.90;;;;;;5091144;28;20020;-46
2023/08/24 04:10:41;;;;;;;8.80;7.80;;;19.90;99.90;;;;;;5091596;28;20028;-48
2023/08/24 04:13:27;;;;;;;7.93;7.13;;;19.90;99.90;;;;;;5091740;28;20051;-48
2023/08/24 04:16:13;;;;;;;9.20;6.90;;;19.90;99.90;;;;;;5091563;28;20496;-47
2023/08/24 04:18:59;;;;;;;9.02;7.15;;;19.90;99.90;;;;;;5091389;28;20465;-55
2023/08/24 04:21:45;;;;;;;7.30;5.97;;;19.90;99.90;;;;;;5094339;28;20516;-46
2023/08/24 04:24:31;;;;;;;8.25;6.72;;;19.90;99.90;;;;;;5094723;28;20040;-45
2023/08/24 04:27:17;;;;;;;8.55;7.18;;;19.90;99.90;;;;;;5079707;28;20039;-46
2023/08/24 04:30:03;;;;;;;9.38;8.30;;;20.00;99.90;;;;;;5094655;28;20036;-45
2023/08/24 04:32:50;;;;;;;9.35;7.10;;;19.70;99.90;;;;;;5094781;28;20036;-44
2023/08/24 04:35:36;;;;;;;10.57;7.93;;;19.50;99.90;;;;;;5093562;28;20032;-48
2023/08/24 04:38:23;;;;;;;8.40;7.32;;;19.50;99.90;;;;;;5094857;28;20020;-45
2023/08/24 04:41:09;;;;;;;7.43;6.57;;;19.60;99.90;;;;;;5094342;28;20023;-46
2023/08/24 04:43:55;;;;;;;11.20;7.90;;;19.50;99.90;;;;;;5093517;28;20078;-45
2023/08/24 04:46:41;;;;;;;8.40;7.55;;;19.70;99.90;;;;;;5094519;28;20020;-48
2023/08/24 04:49:29;;;;;;;9.77;7.53;;;19.70;99.90;;;;;;5079705;28;20447;-47
2023/08/24 04:52:15;;;;;;;12.85;7.68;;;19.70;99.90;;;;;;5093883;28;20060;-46
2023/08/24 04:55:03;;;;;;;8.93;6.93;;;19.80;99.90;;;;;;5094327;28;20030;-49
2023/08/24 04:57:49;;;;;;;8.73;7.55;;;19.90;99.90;;;;;;5093792;28;20103;-45
2023/08/24 05:00:36;;;;;;;13.75;7.75;;;20.00;99.90;;;;;;5093148;28;20028;-45
2023/08/24 05:03:22;;;;;;;10.93;8.18;;;20.00;99.90;;;;;;5094405;28;20020;-44
2023/08/24 05:06:12;;;;;;;8.45;7.38;;;20.00;99.90;;;;;;5094520;28;20561;-49
2023/08/24 05:08:58;;;;;;;8.75;7.75;;;20.00;99.90;;;;;;5092916;28;20028;-46
2023/08/24 05:11:44;;;;;;;10.25;7.63;;;20.00;99.90;;;;;;5094664;28;20028;-50
2023/08/24 05:14:32;;;;;;;9.98;8.63;;;20.00;99.90;;;;;;5093849;28;20024;-45
2023/08/24 05:17:20;;;;;;;10.90;8.05;;;20.00;99.90;;;;;;5092917;28;20028;-45
2023/08/24 05:20:08;;;;;;;11.18;8.38;;;20.10;99.90;;;;;;5078811;28;20392;-45
2023/08/24 05:22:57;;;;;;;10.10;7.65;;;20.10;99.90;;;;;;5092478;28;20025;-52
2023/08/24 05:25:43;;;;;;;12.32;8.27;;;20.20;99.90;;;;;;5092870;28;20024;-52
2023/08/24 05:28:31;;;;;;;12.73;8.45;;;20.20;99.90;;;;;;5094548;27;20055;-52
2023/08/24 05:31:17;;;;;;;16.10;8.35;;;20.30;99.90;;;;;;5092660;28;20051;-49
2023/08/24 05:34:03;;;;;;;13.80;8.63;;;20.20;99.90;;;;;;5093591;28;20032;-49
2023/08/24 05:36:50;;;;;;;11.38;8.85;;;20.20;99.90;;;;;;5093349;28;20035;-49
2023/08/24 05:39:36;;;;;;;12.75;9.35;;;20.20;99.90;;;;;;5094046;28;20052;-45
2023/08/24 05:42:22;;;;;;;12.38;7.85;;;20.20;99.90;;;;;;5092765;28;20504;-47
2023/08/24 05:45:08;;;;;;;11.10;9.40;;;20.20;99.90;;;;;;5096759;28;20078;-49
2023/08/24 05:47:54;;;;;;;10.23;9.23;;;20.30;99.90;;;;;;5092953;28;20024;-46
2023/08/24 05:50:47;;;;;;;10.25;9.07;;;20.40;99.90;;;;;;5093401;28;20170;-45
2023/08/24 05:53:33;;;;;;;11.05;9.00;;;20.40;99.90;;;;;;5093198;28;20031;-46
2023/08/24 05:56:18;;;;;;;9.82;8.25;;;20.50;99.90;;;;;;5091540;28;20024;-57
2023/08/24 05:59:04;;;;;;;13.13;9.27;;;20.60;99.90;;;;;;5076945;28;20050;-48
2023/08/24 06:01:50;;;;;;;10.80;9.70;;;20.70;99.90;;;;;;5093173;28;20028;-50
2023/08/24 06:04:36;;;;;;;12.23;9.25;;;20.70;99.90;;;;;;5091663;28;20111;-51
2023/08/24 06:07:22;;;;;;;11.50;9.02;;;20.80;99.90;;;;;;5091383;28;20035;-51
2023/08/24 06:10:09;;;;;;;13.05;9.32;;;20.90;99.90;;;;;;5092109;28;20035;-49
2023/08/24 06:12:55;;;;;;;16.80;9.55;;;20.90;99.90;;;;;;5092741;28;20416;-51
2023/08/24 06:15:42;;;;;;;9.90;8.90;;;21.00;99.90;;;;;;5077778;28;20350;-52
2023/08/24 06:18:28;;;;;;;35.22;30.73;;;21.00;99.90;;;;;;5092410;28;20043;-44
2023/08/24 06:21:14;;;;;;;22.63;17.45;;;21.10;99.90;;;;;;5092327;28;20020;-44
2023/08/24 06:24:01;;;;;;;16.88;14.00;;;21.20;99.90;;;;;;5091300;28;20101;-48
2023/08/24 06:26:46;;;;;;;56.78;41.33;;;21.30;99.90;;;;;;5091025;28;20024;-49
2023/08/24 06:29:32;;;;;;;22.88;17.42;;;21.30;99.90;;;;;;5091297;28;20085;-46
2023/08/24 06:32:18;;;;;;;18.17;14.20;;;21.40;99.90;;;;;;5090930;28;20032;-44
2023/08/24 06:35:06;;;;;;;13.77;11.70;;;21.40;99.80;;;;;;5092079;28;20028;-44
2023/08/24 06:37:51;;;;;;;14.13;11.20;;;21.60;99.70;;;;;;5090621;28;20027;-46
2023/08/24 06:40:38;;;;;;;13.02;9.45;;;21.60;99.50;;;;;;5091219;28;20024;-50
2023/08/24 06:43:25;;;;;;;8.77;7.88;;;21.80;98.90;;;;;;5091651;28;20020;-49
2023/08/24 06:46:11;;;;;;;10.32;7.93;;;21.90;98.50;;;;;;5092185;28;20035;-50
2023/08/24 06:48:57;;;;;;;9.23;7.00;;;21.90;98.50;;;;;;5092320;28;20020;-49
2023/08/24 06:51:43;;;;;;;12.00;8.45;;;21.90;98.50;;;;;;5092177;28;20060;-51
2023/08/24 06:54:29;;;;;;;10.77;7.60;;;22.00;98.60;;;;;;5091859;28;20496;-48
2023/08/24 06:57:15;;;;;;;12.55;8.73;;;22.20;98.60;;;;;;5091641;28;20028;-47
2023/08/24 07:00:06;;;;;;;15.35;9.07;;;22.30;98.60;;;;;;5091939;28;20024;-55
2023/08/24 07:02:52;;;;;;;9.07;8.15;;;22.30;98.50;;;;;;5091124;28;20020;-47
2023/08/24 07:05:39;;;;;;;11.57;8.88;;;22.50;98.70;;;;;;5075752;28;20040;-46
2023/08/24 07:08:25;;;;;;;10.45;7.00;;;22.40;99.00;;;;;;5091471;28;20471;-48
2023/08/24 07:11:13;;;;;;;10.23;8.82;;;22.40;99.10;;;;;;5091973;28;20036;-52
2023/08/24 07:13:59;;;;;;;12.07;8.48;;;22.60;98.90;;;;;;5091166;28;20483;-49
2023/08/24 07:16:46;;;;;;;11.07;8.60;;;22.60;98.80;;;;;;5091528;28;20024;-52
2023/08/24 07:19:32;;;;;;;19.00;10.00;;;22.80;98.70;;;;;;5090687;28;20507;-54
2023/08/24 07:22:19;;;;;;;13.18;8.60;;;22.60;99.00;;;;;;5091347;28;20031;-48
2023/08/24 07:25:05;;;;;;;13.50;8.77;;;22.70;98.90;;;;;;5091491;28;20043;-54
2023/08/24 07:27:52;;;;;;;10.20;7.97;;;22.60;99.60;;;;;;5091645;28;20047;-48
2023/08/24 07:30:37;;;;;;;7.82;6.97;;;22.70;99.60;;;;;;5091005;28;20036;-46
2023/08/24 07:33:24;;;;;;;11.85;7.40;;;23.00;99.40;;;;;;5091644;28;20048;-46
2023/08/24 07:36:10;;;;;;;8.93;6.78;;;23.20;98.70;;;;;;5091653;28;20040;-47
2023/08/24 07:38:56;;;;;;;8.10;6.55;;;23.30;98.30;;;;;;5091748;28;20083;-47
2023/08/24 07:41:42;;;;;;;7.32;6.63;;;23.50;98.30;;;;;;5090106;28;20400;-48
2023/08/24 07:44:28;;;;;;;7.25;6.07;;;23.70;98.20;;;;;;5090184;28;20040;-51
2023/08/24 07:47:15;;;;;;;8.35;6.70;;;23.80;98.10;;;;;;5091091;28;20033;-52
2023/08/24 07:50:01;;;;;;;8.10;6.10;;;24.00;97.50;;;;;;5076177;28;20114;-48
2023/08/24 07:52:47;;;;;;;8.77;6.35;;;24.10;97.40;;;;;;5077141;28;20510;-46
2023/08/24 07:55:33;;;;;;;7.75;5.75;;;24.00;97.80;;;;;;5092560;28;20530;-49
2023/08/24 07:58:19;;;;;;;8.15;5.53;;;24.10;97.60;;;;;;5094994;28;20508;-49
2023/08/24 08:01:05;;;;;;;7.05;5.68;;;24.30;97.20;;;;;;5094213;28;20073;-48
2023/08/24 08:03:51;;;;;;;8.60;6.38;;;24.40;96.90;;;;;;5095323;28;20107;-46
2023/08/24 08:06:36;;;;;;;12.18;5.75;;;24.50;95.70;;;;;;5094447;28;20403;-47
2023/08/24 08:09:22;;;;;;;6.20;4.63;;;24.50;95.20;;;;;;5079429;28;20028;-50
2023/08/24 08:12:08;;;;;;;7.60;5.90;;;24.50;95.20;;;;;;5095074;28;20542;-49
2023/08/24 08:14:54;;;;;;;6.72;5.30;;;24.60;95.40;;;;;;5095010;28;20047;-46
2023/08/24 08:17:42;;;;;;;7.35;5.50;;;24.60;95.50;;;;;;5078440;28;20024;-48
2023/08/24 08:20:28;;;;;;;7.93;5.60;;;24.60;94.90;;;;;;5094433;28;20423;-50
2023/08/24 08:23:14;;;;;;;10.93;5.70;;;24.70;94.60;;;;;;5094614;28;20044;-47
2023/08/24 08:26:00;;;;;;;13.43;5.47;;;24.60;94.50;;;;;;5094606;28;20036;-49
2023/08/24 08:28:46;;;;;;;7.78;5.55;;;24.60;94.80;;;;;;5094748;28;20032;-48
2023/08/24 08:31:31;;;;;;;8.68;5.68;;;24.60;95.10;;;;;;5095109;28;20177;-48
2023/08/24 08:34:17;;;;;;;6.82;5.53;;;24.60;95.40;;;;;;5093829;28;20024;-49
2023/08/24 08:37:04;;;;;;;7.85;5.38;;;24.70;95.80;;;;;;5094585;28;20024;-46
2023/08/24 08:39:55;;;;;;;9.98;5.75;;;24.80;95.10;;;;;;5079342;28;20020;-51
2023/08/24 08:42:41;;;;;;;10.00;5.75;;;24.80;94.80;;;;;;5094861;28;20012;-51
2023/08/24 08:45:28;;;;;;;11.98;6.60;;;24.80;94.40;;;;;;5095118;28;20032;-51
2023/08/24 08:48:14;;;;;;;9.52;6.63;;;24.90;94.90;;;;;;5094492;28;20024;-48
2023/08/24 08:51:02;;;;;;;10.77;6.50;;;24.90;94.80;;;;;;5095061;28;20032;-48
2023/08/24 08:53:49;;;;;;;12.50;6.97;;;24.70;95.40;;;;;;5094661;28;20032;-49
2023/08/24 08:56:35;;;;;;;7.55;6.25;;;24.80;95.30;;;;;;5092519;28;20089;-45
2023/08/24 08:59:22;;;;;;;9.52;6.07;;;25.00;95.50;;;;;;5085867;28;20024;-46
2023/08/24 09:02:14;;;;;;;10.00;6.60;;;24.90;95.70;;;;;;5086609;28;20032;-47
2023/08/24 09:05:01;;;;;;;13.30;6.30;;;24.80;95.70;;;;;;5086431;28;20124;-50
2023/08/24 09:07:51;;;;;;;10.25;6.28;;;24.90;96.00;;;;;;5058149;28;20075;-48
2023/08/24 09:10:40;;;;;;;7.25;5.75;;;25.00;95.40;;;;;;5075160;28;20055;-52
2023/08/24 09:13:26;;;;;;;11.07;6.47;;;25.00;95.00;;;;;;5074855;28;20099;-51
2023/08/24 09:16:16;;;;;;;10.27;6.95;;;25.20;95.20;;;;;;5079576;28;20489;-51
2023/08/24 09:19:06;;;;;;;8.32;6.80;;;25.20;95.20;;;;;;5086427;28;20460;-50
2023/08/24 09:21:59;;;;;;;9.02;6.43;;;25.20;95.20;;;;;;5089924;28;20048;-48
2023/08/24 09:24:52;;;;;;;11.00;6.45;;;25.20;95.70;;;;;;5094487;28;20020;-48
2023/08/24 09:27:38;;;;;;;10.00;6.25;;;25.40;95.60;;;;;;5093794;28;20058;-46
2023/08/24 09:30:32;;;;;;;11.88;6.97;;;25.40;95.50;;;;;;5093446;28;20473;-46
2023/08/24 09:33:18;;;;;;;11.60;6.50;;;25.50;95.00;;;;;;5092372;28;20028;-50
2023/08/24 09:36:07;;;;;;;9.77;6.22;;;25.60;94.60;;;;;;5093355;28;20040;-49
2023/08/24 09:38:56;;;;;;;12.10;6.32;;;25.60;94.80;;;;;;5092197;28;20016;-50
2023/08/24 09:41:51;;;;;;;9.98;5.90;;;25.60;94.60;;;;;;5092977;28;20023;-48
2023/08/24 09:44:37;;;;;;;12.10;6.00;;;25.80;94.40;;;;;;5093314;28;20032;-46
2023/08/24 09:47:23;;;;;;;8.00;5.35;;;25.90;94.50;;;;;;5093271;28;20073;-52
2023/08/24 09:50:09;;;;;;;9.30;5.60;;;26.00;94.50;;;;;;5093283;28;20041;-54
2023/08/24 09:53:00;;;;;;;7.50;5.75;;;26.00;94.30;;;;;;5091874;28;20027;-49
2023/08/24 09:56:00;;;;;;;7.43;6.10;;;26.00;94.20;;;;;;5091903;28;20036;-47
2023/08/24 09:58:48;;;;;;;7.28;5.72;;;26.00;94.20;;;;;;5093109;28;20016;-51
2023/08/24 10:01:35;;;;;;;10.57;7.30;;;26.10;94.10;;;;;;5093116;28;20028;-48
2023/08/24 10:04:25;;;;;;;8.35;6.15;;;26.10;93.90;;;;;;5093037;28;20051;-56
2023/08/24 10:07:15;;;;;;;10.13;8.18;;;26.10;93.80;;;;;;5091617;28;20087;-52
2023/08/24 10:10:06;;;;;;;8.52;7.38;;;26.10;93.90;;;;;;5091761;28;20036;-55
2023/08/24 10:12:59;;;;;;;8.10;6.05;;;26.10;94.00;;;;;;5091428;28;20024;-55
2023/08/24 10:15:46;;;;;;;10.55;6.00;;;26.00;93.10;;;;;;5091972;28;20024;-52
2023/08/24 10:18:33;;;;;;;9.57;5.10;;;26.00;93.30;;;;;;5092236;28;20020;-53
2023/08/24 10:21:20;;;;;;;10.88;6.10;;;26.00;93.70;;;;;;5092433;28;20558;-55
2023/08/24 10:24:07;;;;;;;6.25;5.25;;;26.00;93.90;;;;;;5091534;28;20040;-51
2023/08/24 10:26:55;;;;;;;9.70;6.05;;;26.00;93.70;;;;;;5092706;28;20052;-53
2023/08/24 10:29:41;;;;;;;9.52;6.05;;;26.00;93.40;;;;;;5092668;28;20032;-55
2023/08/24 10:32:27;;;;;;;9.23;6.15;;;26.00;93.60;;;;;;5091587;28;20106;-53
2023/08/24 10:35:15;;;;;;;10.48;5.75;;;25.90;93.80;;;;;;5091303;28;20024;-55
2023/08/24 10:38:01;;;;;;;6.85;6.00;;;25.90;93.60;;;;;;5091949;28;20024;-54
2023/08/24 10:40:48;;;;;;;10.70;6.10;;;26.00;93.70;;;;;;5091357;28;20055;-45
2023/08/24 10:43:41;;;;;;;14.48;6.80;;;26.10;93.80;;;;;;5091219;28;20030;-44
2023/08/24 10:46:27;;;;;;;7.78;5.82;;;26.20;94.00;;;;;;5091877;28;20503;-53
2023/08/24 10:49:19;;;;;;;6.93;6.18;;;26.20;93.90;;;;;;5092115;28;20024;-51
2023/08/24 10:52:28;;;;;;;11.68;6.82;;;26.20;93.80;;;;;;5091776;28;20047;-52
2023/08/24 10:55:25;;;;;;;9.07;6.40;;;26.20;94.20;;;;;;5092116;28;20034;-45
2023/08/24 10:58:19;;;;;;;7.15;5.85;;;26.30;94.10;;;;;;5090951;28;20484;-44
2023/08/24 11:01:05;;;;;;;10.02;6.05;;;26.40;93.90;;;;;;5092076;28;20032;-50
2023/08/24 11:03:57;;;;;;;7.45;6.70;;;26.60;93.70;;;;;;5092394;28;20557;-54
2023/08/24 11:06:59;;;;;;;7.25;6.40;;;26.70;93.60;;;;;;5091706;28;20058;-51
2023/08/24 11:09:48;;;;;;;7.28;5.90;;;26.80;93.30;;;;;;5090985;28;20050;-47
2023/08/24 11:13:03;;;;;;;6.53;5.65;;;26.80;93.20;;;;;;5092432;28;20393;-46
2023/08/24 11:16:04;;;;;;;;;;;26.80;93.00;;;;;;5092702;28;20016;-49
2023/08/24 11:18:50;;;;;;;7.60;6.63;;;26.80;92.70;;;;;;5090978;28;19919;-49
2023/08/24 11:21:38;;;;;;;8.15;5.63;;;26.80;92.60;;;;;;5091593;28;20567;-48
2023/08/24 11:24:25;;;;;;;6.82;5.72;;;26.80;92.50;;;;;;5091510;28;20043;-52
2023/08/24 11:27:11;;;;;;;6.40;5.60;;;27.00;92.40;;;;;;5090991;28;20506;-45
2023/08/24 11:30:01;;;;;;;10.05;5.32;;;27.10;92.20;;;;;;5065823;28;20107;-48
2023/08/24 11:32:53;;;;;;;5.97;5.30;;;27.30;92.00;;;;;;5096450;28;20412;-47
2023/08/24 11:35:43;;;;;;;7.22;5.47;;;27.40;91.80;;;;;;5094656;28;20446;-44
2023/08/24 11:38:40;;;;;;;8.02;5.25;;;27.40;91.40;;;;;;5094334;28;20682;-47
2023/08/24 11:41:26;;;;;;;9.98;6.45;;;27.50;91.10;;;;;;5095958;28;20020;-53
2023/08/24 11:44:12;;;;;;;10.13;5.90;;;27.50;91.10;;;;;;5096069;28;20400;-50
2023/08/24 11:46:59;;;;;;;7.25;5.47;;;27.70;91.20;;;;;;5094765;28;20028;-51
2023/08/24 11:49:45;;;;;;;12.13;5.50;;;27.80;91.20;;;;;;5096391;28;20024;-54
2023/08/24 11:52:35;;;;;;;8.25;5.65;;;27.90;91.10;;;;;;5078722;28;20036;-47
2023/08/24 11:55:22;;;;;;;9.55;5.50;;;28.00;91.10;;;;;;5060061;28;20025;-52
2023/08/24 11:58:16;;;;;;;8.85;5.82;;;28.00;90.40;;;;;;5078683;28;20021;-46
2023/08/24 12:01:03;;;;;;;;;;;28.10;90.50;;;;;;5082227;28;20028;-45
2023/08/24 12:03:49;;;;;;;7.93;5.45;;;28.20;90.40;;;;;;5094215;28;19905;-50
2023/08/24 12:06:36;;;;;;;8.35;5.18;;;28.30;90.40;;;;;;5082975;28;20043;-48
2023/08/24 12:09:22;;;;;;;9.85;6.10;;;28.50;90.60;;;;;;5073737;28;20059;-46
2023/08/24 12:12:16;;;;;;;7.13;5.63;;;28.60;90.40;;;;;;5073883;28;20029;-49
2023/08/24 12:15:03;;;;;;;14.52;11.35;;;28.40;89.40;;;;;;5083111;28;20034;-49
2023/08/24 12:17:49;;;;;;;8.15;6.25;;;28.50;89.00;;;;;;5093329;28;20033;-48
2023/08/24 12:20:35;;;;;;;7.03;5.10;;;28.50;87.90;;;;;;5093609;28;20020;-46
2023/08/24 12:23:27;;;;;;;9.00;5.22;;;28.40;87.60;;;;;;5094921;28;20529;-53
2023/08/24 12:26:19;;;;;;;9.50;5.80;;;28.40;87.20;;;;;;5094523;28;20093;-48
2023/08/24 12:29:07;;;;;;;8.40;5.70;;;28.40;87.40;;;;;;5093902;28;20020;-45
2023/08/24 12:31:58;;;;;;;6.90;5.28;;;28.50;87.10;;;;;;5085726;28;20032;-53
2023/08/24 12:34:43;;;;;;;9.65;5.00;;;28.40;85.80;;;;;;5073924;28;20028;-52
2023/08/24 12:37:29;;;;;;;11.95;5.88;;;28.30;85.50;;;;;;5074195;28;20024;-55
2023/08/24 12:40:16;;;;;;;6.90;4.63;;;28.30;85.80;;;;;;5073393;28;20027;-53
2023/08/24 12:43:02;;;;;;;12.82;5.20;;;28.30;85.30;;;;;;5073057;28;20081;-56
2023/08/24 12:45:48;;;;;;;7.38;4.55;;;28.40;85.50;;;;;;5073482;28;20398;-53
2023/08/24 12:48:34;;;;;;;12.57;4.88;;;28.40;84.60;;;;;;5072976;28;20063;-53
2023/08/24 12:51:20;;;;;;;8.23;4.97;;;28.50;84.70;;;;;;5072217;28;20040;-50
2023/08/24 12:54:07;;;;;;;7.30;4.57;;;28.60;85.00;;;;;;5058478;28;20056;-50
2023/08/24 12:56:53;;;;;;;5.07;4.53;;;28.70;85.60;;;;;;5073628;28;20435;-50
2023/08/24 12:59:38;;;;;;;10.40;5.22;;;29.00;85.50;;;;;;5093986;28;20562;-51
2023/08/24 13:02:24;;;;;;;7.00;5.20;;;29.00;82.90;;;;;;5094492;28;20484;-55
2023/08/24 13:05:10;;;;;;;8.15;4.90;;;29.30;82.70;;;;;;5084437;28;20103;-50
2023/08/24 13:07:56;;;;;;;7.30;4.93;;;29.30;82.20;;;;;;5073453;28;20029;-49
2023/08/24 13:10:42;;;;;;;6.70;5.18;;;29.40;82.20;;;;;;5073977;28;20086;-56
2023/08/24 13:13:28;;;;;;;9.15;5.07;;;29.30;82.70;;;;;;5072432;28;20083;-50
2023/08/24 13:16:14;;;;;;;7.47;5.22;;;29.50;83.00;;;;;;5082234;28;20039;-50
2023/08/24 13:19:00;;;;;;;8.02;4.93;;;29.70;83.40;;;;;;5093850;28;20028;-52
2023/08/24 13:21:46;;;;;;;13.95;5.28;;;29.90;83.70;;;;;;5093940;28;20035;-53
2023/08/24 13:24:32;;;;;;;11.43;5.43;;;30.00;83.70;;;;;;5093670;28;20508;-52
2023/08/24 13:27:19;;;;;;;9.02;5.05;;;30.10;83.00;;;;;;5093422;28;20037;-53
2023/08/24 13:30:05;;;;;;;7.43;5.00;;;30.30;83.10;;;;;;5091989;28;20034;-54
2023/08/24 13:32:51;;;;;;;7.60;5.05;;;30.50;82.80;;;;;;5085169;28;20028;-52
2023/08/24 13:35:37;;;;;;;11.80;5.20;;;30.50;82.00;;;;;;5077853;28;20161;-54
2023/08/24 13:38:23;;;;;;;8.90;5.05;;;30.70;81.80;;;;;;5077666;28;20020;-53
2023/08/24 13:41:09;;;;;;;6.30;4.68;;;30.90;81.60;;;;;;5092841;28;20524;-55
2023/08/24 13:43:55;;;;;;;5.97;4.80;;;31.00;81.00;;;;;;5092812;28;20424;-55
2023/08/24 13:46:41;;;;;;;7.15;5.10;;;31.30;80.80;;;;;;5092575;28;20046;-55
2023/08/24 13:49:27;;;;;;;6.68;5.35;;;31.50;80.10;;;;;;5091278;28;20031;-55
2023/08/24 13:52:13;;;;;;;6.63;5.32;;;31.20;79.60;;;;;;5092458;28;20020;-59
2023/08/24 13:55:01;;;;;;;7.03;5.07;;;31.10;79.80;;;;;;5092173;28;20031;-52
2023/08/24 13:57:47;;;;;;;8.10;5.18;;;30.90;80.30;;;;;;5091720;28;20048;-56
2023/08/24 14:00:32;;;;;;;10.65;5.95;;;31.00;81.00;;;;;;5092255;28;20035;-56
2023/08/24 14:03:18;;;;;;;10.30;6.40;;;30.90;80.60;;;;;;5091929;28;20020;-52
2023/08/24 14:06:04;;;;;;;10.00;5.70;;;30.80;81.20;;;;;;5083139;28;20032;-53
2023/08/24 14:08:50;;;;;;;12.52;5.10;;;30.70;80.50;;;;;;5043279;28;20107;-55
2023/08/24 14:11:36;;;;;;;7.78;5.10;;;30.70;80.30;;;;;;5073210;28;20563;-55
2023/08/24 14:14:22;;;;;;;6.03;5.05;;;30.80;79.70;;;;;;5057772;28;20388;-55
2023/08/24 14:17:08;;;;;;;8.90;5.57;;;30.90;80.50;;;;;;5072741;28;20565;-55
2023/08/24 14:19:54;;;;;;;9.98;5.43;;;31.20;81.00;;;;;;5073090;28;20036;-53
2023/08/24 14:22:40;;;;;;;10.32;5.32;;;31.50;80.00;;;;;;5071807;28;20496;-55
2023/08/24 14:25:26;;;;;;;7.60;5.45;;;31.70;79.30;;;;;;5057996;28;20040;-55